Orion — V7MA4 — position and weather

sailwx.info

Track history (hours):
 
Tides and Currents Weather Stations Pressure Air Temp Water Temp Dewpoint Dewpoint Depression Visibility Wind Speed Wind Dir Waves Ship Positions

Orion

Last reported at 2017-Sep-08 17:13 UTC. Time now 2017-Sep-25 01:07 UTC.
Position N 49°33' W 004°17'.
Warning: this ship's position is 16 days out of date.

Length 229 m; draft 8.6 m.

Type: Cargo ship. MMSI: 538006338.

Date/timePositionNaut miles runAvg speedWind from/ knotsBaromVisibWave heightAir tempDewpointWater temp
2017-Sep-08 17:13N 49°33' W 004°17'312.3
2017-Sep-08 17:00N 49°34' W 004°13'612.6
2017-Sep-08 16:30N 49°38' W 004°05'713.2
2017-Sep-08 16:00N 49°41' W 003°56'713.9
2017-Sep-08 15:30N 49°44' W 003°46'714.4
2017-Sep-08 15:00N 49°47' W 003°36'714.8
2017-Sep-08 14:30N 49°50' W 003°26'715.0
2017-Sep-08 14:00N 49°53' W 003°15'815.0
2017-Sep-08 13:30N 49°57' W 003°05'714.7
2017-Sep-08 13:00N 49°59' W 002°54'714.2
2017-Sep-08 12:30N 50°01' W 002°43'2711.8
2017-Sep-08 10:11N 50°09' W 002°02'2 9.7
2017-Sep-08 10:00N 50°09' W 001°60'5 9.5
2017-Sep-08 09:30N 50°11' W 001°53'5 9.2
2017-Sep-08 09:00N 50°12' W 001°46'5 9.2
2017-Sep-08 08:31N 50°13' W 001°39'5 9.4
2017-Sep-08 08:01N 50°14' W 001°32'510.0
2017-Sep-08 07:30N 50°15' W 001°24'611.0
2017-Sep-08 06:57N 50°17' W 001°15'612.2
2017-Sep-08 06:29N 50°18' W 001°06'1213.9
2017-Sep-08 05:35N 50°21' W 000°47'1314.6
2017-Sep-08 04:43N 50°25' W 000°28'314.8
2017-Sep-08 04:30N 50°26' W 000°23'714.6
2017-Sep-08 04:00N 50°28' W 000°12'714.3
2017-Sep-08 03:30N 50°30' W 000°01'714.2
2017-Sep-08 03:01N 50°32' E 000°09'713.9
2017-Sep-08 02:30N 50°34' E 000°20'713.5
2017-Sep-08 02:00N 50°36' E 000°30'612.9
2017-Sep-08 01:30N 50°38' E 000°40'612.2
2017-Sep-08 01:00N 50°41' E 000°47'611.6
2017-Sep-08 00:30N 50°45' E 000°54'611.2
2017-Sep-08 00:00N 50°48' E 001°01'611.2
2017-Sep-07 23:29N 50°52' E 001°08'511.2
2017-Sep-07 23:00N 50°56' E 001°14'611.3
2017-Sep-07 22:30N 51°00' E 001°20'612.5
2017-Sep-07 22:00N 51°04' E 001°28'714.5
2017-Sep-07 21:30N 51°09' E 001°37'815.3
2017-Sep-07 21:00N 51°14' E 001°45'815.9
2017-Sep-07 20:30N 51°21' E 001°52'714.6
2017-Sep-07 20:00N 51°27' E 001°59'714.6
2017-Sep-07 19:30N 51°33' E 002°06'714.3
2017-Sep-07 19:01N 51°38' E 002°14'713.9
2017-Sep-07 18:30N 51°43' E 002°21'136 9.3
2017-Sep-07 03:57N 53°39' E 000°22'5 9.0
2017-Sep-07 03:26N 53°35' E 000°18'610.0
2017-Sep-07 02:52N 53°33' E 000°10'410.0
2017-Sep-07 02:30N 53°35' E 000°05'510.5
2017-Sep-07 02:00N 53°37' W 000°03'5 9.2
2017-Sep-07 01:30N 53°38' W 000°11'1 1.8
2017-Sep-07 01:00N 53°38' W 000°12'0 0.0
2017-Sep-07 00:30N 53°38' W 000°12'0 0.0
2017-Sep-06 23:58N 53°38' W 000°12'0 0.0
2017-Sep-06 23:28N 53°38' W 000°12'0 0.0
2017-Sep-06 22:58N 53°38' W 000°12'0 0.0
2017-Sep-06 22:28N 53°38' W 000°12'0 0.0
2017-Sep-06 21:52N 53°38' W 000°12'0 0.0
2017-Sep-06 21:28N 53°38' W 000°12'0 0.0
2017-Sep-06 20:58N 53°38' W 000°12'0 0.0
2017-Sep-06 20:25N 53°38' W 000°12'0 0.0
2017-Sep-06 19:58N 53°38' W 000°12'0 0.0
2017-Sep-06 19:28N 53°38' W 000°12'0 0.0
2017-Sep-06 18:58N 53°38' W 000°12'0 0.0
2017-Sep-06 18:25N 53°38' W 000°12'0 0.0
2017-Sep-06 17:58N 53°38' W 000°12'0 0.0
2017-Sep-06 17:28N 53°38' W 000°12'0 0.0
2017-Sep-06 16:55N 53°38' W 000°12'0 0.0
2017-Sep-06 16:25N 53°38' W 000°12'0 0.0
2017-Sep-06 15:58N 53°38' W 000°12'0 0.0
2017-Sep-06 15:28N 53°38' W 000°12'0 0.0
2017-Sep-06 14:58N 53°38' W 000°12'0 0.0
2017-Sep-06 14:28N 53°38' W 000°12'0 0.0
2017-Sep-06 13:58N 53°38' W 000°12'0 0.0
2017-Sep-06 13:28N 53°38' W 000°12'0 0.0
2017-Sep-06 12:58N 53°38' W 000°12'0 0.0
2017-Sep-06 12:28N 53°38' W 000°12'0 0.0
2017-Sep-06 11:49N 53°38' W 000°12'0 0.0
2017-Sep-06 11:28N 53°38' W 000°12'0 0.0
2017-Sep-06 10:58N 53°38' W 000°12'0 0.0
2017-Sep-06 10:28N 53°38' W 000°12'0 0.0
2017-Sep-06 09:58N 53°38' W 000°12'0 0.0
2017-Sep-06 09:28N 53°38' W 000°12'0 0.0
2017-Sep-06 08:58N 53°38' W 000°12'0 0.0
2017-Sep-06 08:28N 53°38' W 000°12'0 0.0
2017-Sep-06 07:58N 53°38' W 000°12'0 0.0
2017-Sep-06 07:28N 53°38' W 000°12'0 0.0
2017-Sep-06 06:58N 53°38' W 000°12'0 0.0
2017-Sep-06 06:28N 53°38' W 000°12'0 0.0
2017-Sep-06 05:58N 53°38' W 000°12'0 0.0
2017-Sep-06 05:28N 53°38' W 000°12'0 0.0
2017-Sep-06 04:58N 53°38' W 000°12'0 0.0
2017-Sep-06 04:28N 53°38' W 000°12'0 0.0
2017-Sep-06 03:58N 53°38' W 000°12'0 0.0
2017-Sep-06 03:28N 53°38' W 000°12'0 0.0
2017-Sep-06 02:58N 53°38' W 000°12'0 0.0
2017-Sep-06 02:28N 53°38' W 000°12'0 0.0
2017-Sep-06 01:55N 53°38' W 000°12'0 0.0
2017-Sep-06 01:22N 53°38' W 000°12'0 0.0
2017-Sep-06 00:52N 53°38' W 000°12'0 0.0
2017-Sep-06 00:28N 53°38' W 000°12'0 0.0
2017-Sep-05 23:55N 53°38' W 000°12'0 0.0
2017-Sep-05 23:28N 53°38' W 000°12'0 0.0
2017-Sep-05 22:58N 53°38' W 000°12'0 0.0
2017-Sep-05 22:28N 53°38' W 000°12'0 0.0
2017-Sep-05 21:58N 53°38' W 000°12'0 0.0
2017-Sep-05 21:22N 53°38' W 000°12'0 0.0
2017-Sep-05 20:58N 53°38' W 000°12'0 0.0
2017-Sep-05 20:13N 53°38' W 000°12'0 0.0
2017-Sep-05 19:58N 53°38' W 000°12'0 0.0
2017-Sep-05 19:22N 53°38' W 000°12'0 0.0
2017-Sep-05 18:43N 53°38' W 000°12'0 0.0
2017-Sep-05 18:28N 53°38' W 000°12'0 0.0
2017-Sep-05 17:58N 53°38' W 000°12'0 0.0
2017-Sep-05 17:25N 53°38' W 000°12'0 0.0
2017-Sep-05 16:58N 53°38' W 000°12'0 0.0
2017-Sep-05 16:25N 53°38' W 000°12'0 0.0
2017-Sep-05 15:58N 53°38' W 000°12'0 0.0
2017-Sep-05 15:25N 53°38' W 000°12'0 0.0
2017-Sep-05 14:58N 53°38' W 000°12'0 0.0
2017-Sep-05 14:25N 53°38' W 000°12'0 0.0
2017-Sep-05 13:55N 53°38' W 000°12'0 0.0
2017-Sep-05 13:28N 53°38' W 000°12'0 0.0
2017-Sep-05 12:58N 53°38' W 000°12'0 0.0
2017-Sep-05 12:31N 53°38' W 000°12'0 0.0
2017-Sep-05 12:01N 53°38' W 000°12'0 0.0
2017-Sep-05 11:28N 53°38' W 000°12'0 0.0
2017-Sep-05 10:58N 53°38' W 000°12'0 0.0
2017-Sep-05 10:22N 53°38' W 000°12'0 0.0
2017-Sep-05 09:58N 53°38' W 000°12'0 0.0
2017-Sep-05 09:28N 53°38' W 000°12'0 0.0
2017-Sep-05 08:58N 53°38' W 000°12'0 0.0
2017-Sep-05 08:25N 53°38' W 000°12'0 0.0
2017-Sep-05 07:55N 53°38' W 000°12'0 0.0
2017-Sep-05 07:31N 53°38' W 000°12'0 0.0
2017-Sep-05 06:55N 53°38' W 000°12'0 0.0
2017-Sep-05 06:28N 53°38' W 000°12'0 0.0
2017-Sep-05 06:00N 53°38' W 000°12'0 0.0
2017-Sep-05 05:28N 53°38' W 000°12'0 0.0
2017-Sep-05 04:58N 53°38' W 000°12'0 0.0
2017-Sep-05 04:28N 53°38' W 000°12'0 0.0
2017-Sep-05 04:00N 53°38' W 000°12'0 0.0
2017-Sep-05 03:28N 53°38' W 000°12'0 0.0
2017-Sep-05 02:55N 53°38' W 000°12'0 0.0
2017-Sep-05 02:27N 53°38' W 000°12'0 0.0
2017-Sep-05 02:01N 53°38' W 000°12'0 0.0
2017-Sep-05 01:25N 53°38' W 000°12'0 0.0
2017-Sep-05 00:58N 53°38' W 000°12'0 0.0
2017-Sep-05 00:28N 53°38' W 000°12'0 0.0
2017-Sep-05 00:01N 53°38' W 000°12'0 0.0
2017-Sep-04 23:22N 53°38' W 000°12'0 0.0
2017-Sep-04 22:58N 53°38' W 000°12'0 0.0
2017-Sep-04 22:28N 53°38' W 000°12'0 0.0
2017-Sep-04 22:00N 53°38' W 000°12'0 0.0
2017-Sep-04 21:31N 53°38' W 000°12'0 0.0
2017-Sep-04 21:00N 53°38' W 000°12'0 0.0
2017-Sep-04 20:30N 53°38' W 000°12'0 0.0
2017-Sep-04 19:57N 53°38' W 000°12'0 0.0
2017-Sep-04 19:19N 53°38' W 000°12'0 0.0
2017-Sep-04 19:00N 53°38' W 000°12'0 0.0
2017-Sep-04 18:18N 53°38' W 000°12'0 0.0
2017-Sep-04 17:55N 53°38' W 000°12'0 0.0
2017-Sep-04 17:31N 53°38' W 000°12'0 0.0
2017-Sep-04 17:00N 53°38' W 000°12'0 0.0
2017-Sep-04 16:30N 53°38' W 000°12'0 0.0
2017-Sep-04 15:58N 53°38' W 000°12'0 0.0
2017-Sep-04 15:27N 53°38' W 000°12'0 0.0
2017-Sep-04 14:55N 53°38' W 000°12'0 0.0
2017-Sep-04 14:31N 53°38' W 000°12'0 0.0
2017-Sep-04 14:01N 53°38' W 000°12'0 0.0
2017-Sep-04 13:24N 53°38' W 000°12'0 0.0
2017-Sep-04 12:57N 53°38' W 000°12'0 0.0
2017-Sep-04 12:31N 53°38' W 000°12'0 0.0
2017-Sep-04 12:00N 53°38' W 000°12'0 0.0
2017-Sep-04 11:24N 53°38' W 000°12'0 0.0
2017-Sep-04 11:00N 53°38' W 000°12'0 0.0
2017-Sep-04 10:31N 53°38' W 000°12'0 0.0
2017-Sep-04 10:00N 53°38' W 000°12'0 0.0
2017-Sep-04 09:24N 53°38' W 000°12'0 0.0
2017-Sep-04 09:01N 53°38' W 000°12'0 0.0
2017-Sep-04 08:31N 53°38' W 000°12'0 0.0
2017-Sep-04 08:00N 53°38' W 000°12'0 0.0
2017-Sep-04 07:30N 53°38' W 000°12'0 0.0
2017-Sep-04 06:57N 53°38' W 000°12'0 0.0
2017-Sep-04 06:28N 53°38' W 000°12'0 0.0
2017-Sep-04 06:01N 53°38' W 000°12'0 0.0
2017-Sep-04 05:30N 53°38' W 000°12'0 0.0
2017-Sep-04 05:00N 53°38' W 000°12'0 0.0
2017-Sep-04 04:30N 53°38' W 000°12'0 0.0
2017-Sep-04 04:00N 53°38' W 000°12'0 0.0
2017-Sep-04 03:30N 53°38' W 000°12'0 0.0
2017-Sep-04 02:54N 53°38' W 000°12'0 0.0
2017-Sep-04 02:30N 53°38' W 000°12'0 0.0
2017-Sep-04 02:00N 53°38' W 000°12'0 0.0
2017-Sep-04 01:30N 53°38' W 000°12'0 0.0
2017-Sep-04 01:00N 53°38' W 000°12'0 0.0
2017-Sep-04 00:30N 53°38' W 000°12'0 0.0
2017-Sep-04 00:00N 53°38' W 000°12'0 0.0
2017-Sep-03 23:27N 53°38' W 000°12'0 0.0
2017-Sep-03 23:00N 53°38' W 000°12'0 0.0
2017-Sep-03 22:30N 53°38' W 000°12'0 0.0
2017-Sep-03 22:00N 53°38' W 000°12'0 0.0
2017-Sep-03 21:30N 53°38' W 000°12'0 0.0
2017-Sep-03 21:00N 53°38' W 000°12'0 0.0
2017-Sep-03 20:30N 53°38' W 000°12'0 0.0
2017-Sep-03 20:00N 53°38' W 000°12'0 0.0
2017-Sep-03 19:30N 53°38' W 000°12'0 0.0
2017-Sep-03 19:00N 53°38' W 000°12'0 0.0
2017-Sep-03 18:30N 53°38' W 000°12'0 0.0
2017-Sep-03 18:00N 53°38' W 000°12'0 0.0
2017-Sep-03 17:30N 53°38' W 000°12'0 0.0
2017-Sep-03 17:00N 53°38' W 000°12'0 0.0
2017-Sep-03 16:21N 53°38' W 000°12'0 0.0
2017-Sep-03 15:57N 53°38' W 000°12'0 0.0
2017-Sep-03 15:30N 53°38' W 000°12'0 0.0
2017-Sep-03 15:00N 53°38' W 000°12'0 0.0
2017-Sep-03 13:57N 53°38' W 000°12'0 0.0
2017-Sep-03 13:30N 53°38' W 000°12'0 0.0
2017-Sep-03 12:57N 53°38' W 000°12'0 0.0
2017-Sep-03 12:27N 53°38' W 000°12'0 0.0
2017-Sep-03 12:00N 53°38' W 000°12'0 0.0
2017-Sep-03 11:24N 53°38' W 000°12'0 0.0
2017-Sep-03 11:00N 53°38' W 000°12'0 0.0
2017-Sep-03 10:30N 53°38' W 000°12'0 0.0
2017-Sep-03 10:00N 53°38' W 000°12'0 0.0
2017-Sep-03 09:30N 53°38' W 000°12'0 0.0
2017-Sep-03 09:00N 53°38' W 000°12'0 0.0
2017-Sep-03 08:30N 53°38' W 000°12'0 0.0
2017-Sep-03 07:57N 53°38' W 000°12'0 0.0
2017-Sep-03 07:30N 53°38' W 000°12'0 0.0
2017-Sep-03 07:00N 53°38' W 000°12'0 0.0
2017-Sep-03 06:30N 53°38' W 000°12'0 0.0
2017-Sep-03 06:00N 53°38' W 000°12'0 0.0
2017-Sep-03 05:30N 53°38' W 000°12'0 0.0
2017-Sep-03 05:00N 53°38' W 000°12'0 0.0
2017-Sep-03 04:27N 53°38' W 000°12'0 0.0
2017-Sep-03 04:00N 53°38' W 000°12'0 0.0
2017-Sep-03 03:30N 53°38' W 000°12'0 0.0
2017-Sep-03 03:00N 53°38' W 000°12'0 0.0
2017-Sep-03 02:27N 53°38' W 000°12'0 0.0
2017-Sep-03 02:00N 53°38' W 000°12'0 0.0
2017-Sep-03 01:30N 53°38' W 000°12'0 0.0
2017-Sep-03 00:48N 53°38' W 000°12'0 0.0
2017-Sep-03 00:30N 53°38' W 000°12'0 0.0
2017-Sep-03 00:00N 53°38' W 000°12'0 0.0
2017-Sep-02 23:24N 53°38' W 000°12'0 0.0
2017-Sep-02 22:51N 53°38' W 000°12'0 0.0
2017-Sep-02 22:27N 53°38' W 000°12'0 0.0
2017-Sep-02 22:00N 53°38' W 000°12'0 0.0
2017-Sep-02 21:30N 53°38' W 000°12'0 0.0
2017-Sep-02 21:00N 53°38' W 000°12'0 0.0
2017-Sep-02 20:30N 53°38' W 000°12'0 0.0
2017-Sep-02 20:00N 53°38' W 000°12'0 0.0
2017-Sep-02 19:27N 53°38' W 000°12'0 0.0
2017-Sep-02 19:00N 53°38' W 000°12'0 0.0
2017-Sep-02 18:30N 53°38' W 000°12'0 0.0
2017-Sep-02 18:00N 53°38' W 000°12'0 0.0
2017-Sep-02 17:24N 53°38' W 000°12'0 0.0
2017-Sep-02 17:00N 53°38' W 000°12'0 0.0
2017-Sep-02 16:30N 53°38' W 000°12'0 0.0
2017-Sep-02 16:00N 53°38' W 000°12'0 0.6
2017-Sep-02 15:30N 53°38' W 000°12'2 4.3
2017-Sep-02 14:59N 53°38' W 000°08'3 5.9
2017-Sep-02 14:30N 53°37' W 000°03'4 8.7
2017-Sep-02 14:00N 53°36' E 000°04'510.6
2017-Sep-02 13:30N 53°33' E 000°11'7 9.9
2017-Sep-02 12:47N 53°37' E 000°21'410.9
2017-Sep-02 12:26N 53°41' E 000°23'5 0.2
2017-Sep-01 16:41N 53°45' E 000°27'0 0.0
2017-Sep-01 16:29N 53°45' E 000°27'0 0.0
2017-Sep-01 15:59N 53°45' E 000°27'0 0.0
2017-Sep-01 13:35N 53°45' E 000°27'0 0.1
2017-Sep-01 13:29N 53°45' E 000°27'0 0.0
2017-Aug-31 07:31N 53°45' E 000°27'0 4.5
2017-Aug-31 07:30N 53°45' E 000°27'143 9.6
2017-Aug-30 16:41N 51°45' E 002°35'212.4
2017-Aug-30 16:30N 51°44' E 002°33'712.2
2017-Aug-30 15:56N 51°38' E 002°26'612.1
2017-Aug-30 15:27N 51°34' E 002°19'511.7
2017-Aug-30 15:00N 51°30' E 002°14'611.6
2017-Aug-30 14:30N 51°26' E 002°07'611.5
2017-Aug-30 14:00N 51°22' E 002°01'611.5
2017-Aug-30 13:30N 51°18' E 001°55'611.2
2017-Aug-30 13:00N 51°13' E 001°49'511.0
2017-Aug-30 12:30N 51°09' E 001°44'510.9
2017-Aug-30 12:00N 51°05' E 001°39'611.2
2017-Aug-30 11:30N 51°00' E 001°33'611.1
2017-Aug-30 11:00N 50°56' E 001°28'611.2
2017-Aug-30 10:30N 50°50' E 001°26'5011.5
2017-Aug-30 06:10N 50°22' E 000°21'412.7
2017-Aug-30 05:53N 50°21' E 000°16'512.8
2017-Aug-30 05:30N 50°19' E 000°09'713.1
2017-Aug-30 05:00N 50°18' W 000°01'1213.6
2017-Aug-30 04:07N 50°15' W 000°19'1614.2
2017-Aug-30 02:59N 50°10' W 000°44'714.9
2017-Aug-30 02:29N 50°09' W 000°55'715.2
2017-Aug-30 02:00N 50°07' W 001°06'815.4
2017-Aug-30 01:31N 50°04' W 001°17'815.7
2017-Aug-30 01:00N 50°02' W 001°29'815.8
2017-Aug-30 00:30N 50°00' W 001°41'815.5
2017-Aug-30 00:00N 49°59' W 001°53'815.3
2017-Aug-29 23:30N 49°57' W 002°04'2914.1
2017-Aug-29 21:25N 49°49' W 002°49'1113.4
2017-Aug-29 20:34N 49°47' W 003°06'113.3
2017-Aug-29 20:30N 49°47' W 003°07'713.3
2017-Aug-29 20:00N 49°46' W 003°17'713.2
2017-Aug-29 19:30N 49°45' W 003°27'713.3
2017-Aug-29 19:00N 49°45' W 003°38'713.3
2017-Aug-29 18:30N 49°44' W 003°48'713.2
2017-Aug-29 18:00N 49°44' W 003°58'713.2
2017-Aug-29 17:30N 49°43' W 004°08'  
Track history (hours):
 
Tides and Currents Weather Stations Pressure Air Temp Water Temp Dewpoint Dewpoint Depression Visibility Wind Speed Wind Dir Waves Ship Positions

Orion

Last reported at 2017-Sep-08 17:13 UTC. Time now 2017-Sep-25 01:07 UTC.
Position N 49°33' W 004°17'.
Warning: this ship's position is 16 days out of date.

Length 229 m; draft 8.6 m.

Type: Cargo ship. MMSI: 538006338.

Date/timePositionNaut miles runAvg speedWind from/ knotsBaromVisibWave heightAir tempDewpointWater temp
2017-Sep-08 17:13N 49°33' W 004°17'312.3
2017-Sep-08 17:00N 49°34' W 004°13'612.6
2017-Sep-08 16:30N 49°38' W 004°05'713.2
2017-Sep-08 16:00N 49°41' W 003°56'713.9
2017-Sep-08 15:30N 49°44' W 003°46'714.4
2017-Sep-08 15:00N 49°47' W 003°36'714.8
2017-Sep-08 14:30N 49°50' W 003°26'715.0
2017-Sep-08 14:00N 49°53' W 003°15'815.0
2017-Sep-08 13:30N 49°57' W 003°05'714.7
2017-Sep-08 13:00N 49°59' W 002°54'714.2
2017-Sep-08 12:30N 50°01' W 002°43'2711.8
2017-Sep-08 10:11N 50°09' W 002°02'2 9.7
2017-Sep-08 10:00N 50°09' W 001°60'5 9.5
2017-Sep-08 09:30N 50°11' W 001°53'5 9.2
2017-Sep-08 09:00N 50°12' W 001°46'5 9.2
2017-Sep-08 08:31N 50°13' W 001°39'5 9.4
2017-Sep-08 08:01N 50°14' W 001°32'510.0
2017-Sep-08 07:30N 50°15' W 001°24'611.0
2017-Sep-08 06:57N 50°17' W 001°15'612.2
2017-Sep-08 06:29N 50°18' W 001°06'1213.9
2017-Sep-08 05:35N 50°21' W 000°47'1314.6
2017-Sep-08 04:43N 50°25' W 000°28'314.8
2017-Sep-08 04:30N 50°26' W 000°23'714.6
2017-Sep-08 04:00N 50°28' W 000°12'714.3
2017-Sep-08 03:30N 50°30' W 000°01'714.2
2017-Sep-08 03:01N 50°32' E 000°09'713.9
2017-Sep-08 02:30N 50°34' E 000°20'713.5
2017-Sep-08 02:00N 50°36' E 000°30'612.9
2017-Sep-08 01:30N 50°38' E 000°40'612.2
2017-Sep-08 01:00N 50°41' E 000°47'611.6
2017-Sep-08 00:30N 50°45' E 000°54'611.2
2017-Sep-08 00:00N 50°48' E 001°01'611.2
2017-Sep-07 23:29N 50°52' E 001°08'511.2
2017-Sep-07 23:00N 50°56' E 001°14'611.3
2017-Sep-07 22:30N 51°00' E 001°20'612.5
2017-Sep-07 22:00N 51°04' E 001°28'714.5
2017-Sep-07 21:30N 51°09' E 001°37'815.3
2017-Sep-07 21:00N 51°14' E 001°45'815.9
2017-Sep-07 20:30N 51°21' E 001°52'714.6
2017-Sep-07 20:00N 51°27' E 001°59'714.6
2017-Sep-07 19:30N 51°33' E 002°06'714.3
2017-Sep-07 19:01N 51°38' E 002°14'713.9
2017-Sep-07 18:30N 51°43' E 002°21'136 9.3
2017-Sep-07 03:57N 53°39' E 000°22'5 9.0
2017-Sep-07 03:26N 53°35' E 000°18'610.0
2017-Sep-07 02:52N 53°33' E 000°10'410.0
2017-Sep-07 02:30N 53°35' E 000°05'510.5
2017-Sep-07 02:00N 53°37' W 000°03'5 9.2
2017-Sep-07 01:30N 53°38' W 000°11'1 1.8
2017-Sep-07 01:00N 53°38' W 000°12'0 0.0
2017-Sep-07 00:30N 53°38' W 000°12'0 0.0
2017-Sep-06 23:58N 53°38' W 000°12'0 0.0
2017-Sep-06 23:28N 53°38' W 000°12'0 0.0
2017-Sep-06 22:58N 53°38' W 000°12'0 0.0
2017-Sep-06 22:28N 53°38' W 000°12'0 0.0
2017-Sep-06 21:52N 53°38' W 000°12'0 0.0
2017-Sep-06 21:28N 53°38' W 000°12'0 0.0
2017-Sep-06 20:58N 53°38' W 000°12'0 0.0
2017-Sep-06 20:25N 53°38' W 000°12'0 0.0
2017-Sep-06 19:58N 53°38' W 000°12'0 0.0
2017-Sep-06 19:28N 53°38' W 000°12'0 0.0
2017-Sep-06 18:58N 53°38' W 000°12'0 0.0
2017-Sep-06 18:25N 53°38' W 000°12'0 0.0
2017-Sep-06 17:58N 53°38' W 000°12'0 0.0
2017-Sep-06 17:28N 53°38' W 000°12'0 0.0
2017-Sep-06 16:55N 53°38' W 000°12'0 0.0
2017-Sep-06 16:25N 53°38' W 000°12'0 0.0
2017-Sep-06 15:58N 53°38' W 000°12'0 0.0
2017-Sep-06 15:28N 53°38' W 000°12'0 0.0
2017-Sep-06 14:58N 53°38' W 000°12'0 0.0
2017-Sep-06 14:28N 53°38' W 000°12'0 0.0
2017-Sep-06 13:58N 53°38' W 000°12'0 0.0
2017-Sep-06 13:28N 53°38' W 000°12'0 0.0
2017-Sep-06 12:58N 53°38' W 000°12'0 0.0
2017-Sep-06 12:28N 53°38' W 000°12'0 0.0
2017-Sep-06 11:49N 53°38' W 000°12'0 0.0
2017-Sep-06 11:28N 53°38' W 000°12'0 0.0
2017-Sep-06 10:58N 53°38' W 000°12'0 0.0
2017-Sep-06 10:28N 53°38' W 000°12'0 0.0
2017-Sep-06 09:58N 53°38' W 000°12'0 0.0
2017-Sep-06 09:28N 53°38' W 000°12'0 0.0
2017-Sep-06 08:58N 53°38' W 000°12'0 0.0
2017-Sep-06 08:28N 53°38' W 000°12'0 0.0
2017-Sep-06 07:58N 53°38' W 000°12'0 0.0
2017-Sep-06 07:28N 53°38' W 000°12'0 0.0
2017-Sep-06 06:58N 53°38' W 000°12'0 0.0
2017-Sep-06 06:28N 53°38' W 000°12'0 0.0
2017-Sep-06 05:58N 53°38' W 000°12'0 0.0
2017-Sep-06 05:28N 53°38' W 000°12'0 0.0
2017-Sep-06 04:58N 53°38' W 000°12'0 0.0
2017-Sep-06 04:28N 53°38' W 000°12'0 0.0
2017-Sep-06 03:58N 53°38' W 000°12'0 0.0
2017-Sep-06 03:28N 53°38' W 000°12'0 0.0
2017-Sep-06 02:58N 53°38' W 000°12'0 0.0
2017-Sep-06 02:28N 53°38' W 000°12'0 0.0
2017-Sep-06 01:55N 53°38' W 000°12'0 0.0
2017-Sep-06 01:22N 53°38' W 000°12'0 0.0
2017-Sep-06 00:52N 53°38' W 000°12'0 0.0
2017-Sep-06 00:28N 53°38' W 000°12'0 0.0
2017-Sep-05 23:55N 53°38' W 000°12'0 0.0
2017-Sep-05 23:28N 53°38' W 000°12'0 0.0
2017-Sep-05 22:58N 53°38' W 000°12'0 0.0
2017-Sep-05 22:28N 53°38' W 000°12'0 0.0
2017-Sep-05 21:58N 53°38' W 000°12'0 0.0
2017-Sep-05 21:22N 53°38' W 000°12'0 0.0
2017-Sep-05 20:58N 53°38' W 000°12'0 0.0
2017-Sep-05 20:13N 53°38' W 000°12'0 0.0
2017-Sep-05 19:58N 53°38' W 000°12'0 0.0
2017-Sep-05 19:22N 53°38' W 000°12'0 0.0
2017-Sep-05 18:43N 53°38' W 000°12'0 0.0
2017-Sep-05 18:28N 53°38' W 000°12'0 0.0
2017-Sep-05 17:58N 53°38' W 000°12'0 0.0
2017-Sep-05 17:25N 53°38' W 000°12'0 0.0
2017-Sep-05 16:58N 53°38' W 000°12'0 0.0
2017-Sep-05 16:25N 53°38' W 000°12'0 0.0
2017-Sep-05 15:58N 53°38' W 000°12'0 0.0
2017-Sep-05 15:25N 53°38' W 000°12'0 0.0
2017-Sep-05 14:58N 53°38' W 000°12'0 0.0
2017-Sep-05 14:25N 53°38' W 000°12'0 0.0
2017-Sep-05 13:55N 53°38' W 000°12'0 0.0
2017-Sep-05 13:28N 53°38' W 000°12'0 0.0
2017-Sep-05 12:58N 53°38' W 000°12'0 0.0
2017-Sep-05 12:31N 53°38' W 000°12'0 0.0
2017-Sep-05 12:01N 53°38' W 000°12'0 0.0
2017-Sep-05 11:28N 53°38' W 000°12'0 0.0
2017-Sep-05 10:58N 53°38' W 000°12'0 0.0
2017-Sep-05 10:22N 53°38' W 000°12'0 0.0
2017-Sep-05 09:58N 53°38' W 000°12'0 0.0
2017-Sep-05 09:28N 53°38' W 000°12'0 0.0
2017-Sep-05 08:58N 53°38' W 000°12'0 0.0
2017-Sep-05 08:25N 53°38' W 000°12'0 0.0
2017-Sep-05 07:55N 53°38' W 000°12'0 0.0
2017-Sep-05 07:31N 53°38' W 000°12'0 0.0
2017-Sep-05 06:55N 53°38' W 000°12'0 0.0
2017-Sep-05 06:28N 53°38' W 000°12'0 0.0
2017-Sep-05 06:00N 53°38' W 000°12'0 0.0
2017-Sep-05 05:28N 53°38' W 000°12'0 0.0
2017-Sep-05 04:58N 53°38' W 000°12'0 0.0
2017-Sep-05 04:28N 53°38' W 000°12'0 0.0
2017-Sep-05 04:00N 53°38' W 000°12'0 0.0
2017-Sep-05 03:28N 53°38' W 000°12'0 0.0
2017-Sep-05 02:55N 53°38' W 000°12'0 0.0
2017-Sep-05 02:27N 53°38' W 000°12'0 0.0
2017-Sep-05 02:01N 53°38' W 000°12'0 0.0
2017-Sep-05 01:25N 53°38' W 000°12'0 0.0
2017-Sep-05 00:58N 53°38' W 000°12'0 0.0
2017-Sep-05 00:28N 53°38' W 000°12'0 0.0
2017-Sep-05 00:01N 53°38' W 000°12'0 0.0
2017-Sep-04 23:22N 53°38' W 000°12'0 0.0
2017-Sep-04 22:58N 53°38' W 000°12'0 0.0
2017-Sep-04 22:28N 53°38' W 000°12'0 0.0
2017-Sep-04 22:00N 53°38' W 000°12'0 0.0
2017-Sep-04 21:31N 53°38' W 000°12'0 0.0
2017-Sep-04 21:00N 53°38' W 000°12'0 0.0
2017-Sep-04 20:30N 53°38' W 000°12'0 0.0
2017-Sep-04 19:57N 53°38' W 000°12'0 0.0
2017-Sep-04 19:19N 53°38' W 000°12'0 0.0
2017-Sep-04 19:00N 53°38' W 000°12'0 0.0
2017-Sep-04 18:18N 53°38' W 000°12'0 0.0
2017-Sep-04 17:55N 53°38' W 000°12'0 0.0
2017-Sep-04 17:31N 53°38' W 000°12'0 0.0
2017-Sep-04 17:00N 53°38' W 000°12'0 0.0
2017-Sep-04 16:30N 53°38' W 000°12'0 0.0
2017-Sep-04 15:58N 53°38' W 000°12'0 0.0
2017-Sep-04 15:27N 53°38' W 000°12'0 0.0
2017-Sep-04 14:55N 53°38' W 000°12'0 0.0
2017-Sep-04 14:31N 53°38' W 000°12'0 0.0
2017-Sep-04 14:01N 53°38' W 000°12'0 0.0
2017-Sep-04 13:24N 53°38' W 000°12'0 0.0
2017-Sep-04 12:57N 53°38' W 000°12'0 0.0
2017-Sep-04 12:31N 53°38' W 000°12'0 0.0
2017-Sep-04 12:00N 53°38' W 000°12'0 0.0
2017-Sep-04 11:24N 53°38' W 000°12'0 0.0
2017-Sep-04 11:00N 53°38' W 000°12'0 0.0
2017-Sep-04 10:31N 53°38' W 000°12'0 0.0
2017-Sep-04 10:00N 53°38' W 000°12'0 0.0
2017-Sep-04 09:24N 53°38' W 000°12'0 0.0
2017-Sep-04 09:01N 53°38' W 000°12'0 0.0
2017-Sep-04 08:31N 53°38' W 000°12'0 0.0
2017-Sep-04 08:00N 53°38' W 000°12'0 0.0
2017-Sep-04 07:30N 53°38' W 000°12'0 0.0
2017-Sep-04 06:57N 53°38' W 000°12'0 0.0
2017-Sep-04 06:28N 53°38' W 000°12'0 0.0
2017-Sep-04 06:01N 53°38' W 000°12'0 0.0
2017-Sep-04 05:30N 53°38' W 000°12'0 0.0
2017-Sep-04 05:00N 53°38' W 000°12'0 0.0
2017-Sep-04 04:30N 53°38' W 000°12'0 0.0
2017-Sep-04 04:00N 53°38' W 000°12'0 0.0
2017-Sep-04 03:30N 53°38' W 000°12'0 0.0
2017-Sep-04 02:54N 53°38' W 000°12'0 0.0
2017-Sep-04 02:30N 53°38' W 000°12'0 0.0
2017-Sep-04 02:00N 53°38' W 000°12'0 0.0
2017-Sep-04 01:30N 53°38' W 000°12'0 0.0
2017-Sep-04 01:00N 53°38' W 000°12'0 0.0
2017-Sep-04 00:30N 53°38' W 000°12'0 0.0
2017-Sep-04 00:00N 53°38' W 000°12'0 0.0
2017-Sep-03 23:27N 53°38' W 000°12'0 0.0
2017-Sep-03 23:00N 53°38' W 000°12'0 0.0
2017-Sep-03 22:30N 53°38' W 000°12'0 0.0
2017-Sep-03 22:00N 53°38' W 000°12'0 0.0
2017-Sep-03 21:30N 53°38' W 000°12'0 0.0
2017-Sep-03 21:00N 53°38' W 000°12'0 0.0
2017-Sep-03 20:30N 53°38' W 000°12'0 0.0
2017-Sep-03 20:00N 53°38' W 000°12'0 0.0
2017-Sep-03 19:30N 53°38' W 000°12'0 0.0
2017-Sep-03 19:00N 53°38' W 000°12'0 0.0
2017-Sep-03 18:30N 53°38' W 000°12'0 0.0
2017-Sep-03 18:00N 53°38' W 000°12'0 0.0
2017-Sep-03 17:30N 53°38' W 000°12'0 0.0
2017-Sep-03 17:00N 53°38' W 000°12'0 0.0
2017-Sep-03 16:21N 53°38' W 000°12'0 0.0
2017-Sep-03 15:57N 53°38' W 000°12'0 0.0
2017-Sep-03 15:30N 53°38' W 000°12'0 0.0
2017-Sep-03 15:00N 53°38' W 000°12'0 0.0
2017-Sep-03 13:57N 53°38' W 000°12'0 0.0
2017-Sep-03 13:30N 53°38' W 000°12'0 0.0
2017-Sep-03 12:57N 53°38' W 000°12'0 0.0
2017-Sep-03 12:27N 53°38' W 000°12'0 0.0
2017-Sep-03 12:00N 53°38' W 000°12'0 0.0
2017-Sep-03 11:24N 53°38' W 000°12'0 0.0
2017-Sep-03 11:00N 53°38' W 000°12'0 0.0
2017-Sep-03 10:30N 53°38' W 000°12'0 0.0
2017-Sep-03 10:00N 53°38' W 000°12'0 0.0
2017-Sep-03 09:30N 53°38' W 000°12'0 0.0
2017-Sep-03 09:00N 53°38' W 000°12'0 0.0
2017-Sep-03 08:30N 53°38' W 000°12'0 0.0
2017-Sep-03 07:57N 53°38' W 000°12'0 0.0
2017-Sep-03 07:30N 53°38' W 000°12'0 0.0
2017-Sep-03 07:00N 53°38' W 000°12'0 0.0
2017-Sep-03 06:30N 53°38' W 000°12'0 0.0
2017-Sep-03 06:00N 53°38' W 000°12'0 0.0
2017-Sep-03 05:30N 53°38' W 000°12'0 0.0
2017-Sep-03 05:00N 53°38' W 000°12'0 0.0
2017-Sep-03 04:27N 53°38' W 000°12'0 0.0
2017-Sep-03 04:00N 53°38' W 000°12'0 0.0
2017-Sep-03 03:30N 53°38' W 000°12'0 0.0
2017-Sep-03 03:00N 53°38' W 000°12'0 0.0
2017-Sep-03 02:27N 53°38' W 000°12'0 0.0
2017-Sep-03 02:00N 53°38' W 000°12'0 0.0
2017-Sep-03 01:30N 53°38' W 000°12'0 0.0
2017-Sep-03 00:48N 53°38' W 000°12'0 0.0
2017-Sep-03 00:30N 53°38' W 000°12'0 0.0
2017-Sep-03 00:00N 53°38' W 000°12'0 0.0
2017-Sep-02 23:24N 53°38' W 000°12'0 0.0
2017-Sep-02 22:51N 53°38' W 000°12'0 0.0
2017-Sep-02 22:27N 53°38' W 000°12'0 0.0
2017-Sep-02 22:00N 53°38' W 000°12'0 0.0
2017-Sep-02 21:30N 53°38' W 000°12'0 0.0
2017-Sep-02 21:00N 53°38' W 000°12'0 0.0
2017-Sep-02 20:30N 53°38' W 000°12'0 0.0
2017-Sep-02 20:00N 53°38' W 000°12'0 0.0
2017-Sep-02 19:27N 53°38' W 000°12'0 0.0
2017-Sep-02 19:00N 53°38' W 000°12'0 0.0
2017-Sep-02 18:30N 53°38' W 000°12'0 0.0
2017-Sep-02 18:00N 53°38' W 000°12'0 0.0
2017-Sep-02 17:24N 53°38' W 000°12'0 0.0
2017-Sep-02 17:00N 53°38' W 000°12'0 0.0
2017-Sep-02 16:30N 53°38' W 000°12'0 0.0
2017-Sep-02 16:00N 53°38' W 000°12'0 0.6
2017-Sep-02 15:30N 53°38' W 000°12'2 4.3
2017-Sep-02 14:59N 53°38' W 000°08'3 5.9
2017-Sep-02 14:30N 53°37' W 000°03'4 8.7
2017-Sep-02 14:00N 53°36' E 000°04'510.6
2017-Sep-02 13:30N 53°33' E 000°11'7 9.9
2017-Sep-02 12:47N 53°37' E 000°21'410.9
2017-Sep-02 12:26N 53°41' E 000°23'5 0.2
2017-Sep-01 16:41N 53°45' E 000°27'0 0.0
2017-Sep-01 16:29N 53°45' E 000°27'0 0.0
2017-Sep-01 15:59N 53°45' E 000°27'0 0.0
2017-Sep-01 13:35N 53°45' E 000°27'0 0.1
2017-Sep-01 13:29N 53°45' E 000°27'0 0.0
2017-Aug-31 07:31N 53°45' E 000°27'0 4.5
2017-Aug-31 07:30N 53°45' E 000°27'143 9.6
2017-Aug-30 16:41N 51°45' E 002°35'212.4
2017-Aug-30 16:30N 51°44' E 002°33'712.2
2017-Aug-30 15:56N 51°38' E 002°26'612.1
2017-Aug-30 15:27N 51°34' E 002°19'511.7
2017-Aug-30 15:00N 51°30' E 002°14'611.6
2017-Aug-30 14:30N 51°26' E 002°07'611.5
2017-Aug-30 14:00N 51°22' E 002°01'611.5
2017-Aug-30 13:30N 51°18' E 001°55'611.2
2017-Aug-30 13:00N 51°13' E 001°49'511.0
2017-Aug-30 12:30N 51°09' E 001°44'510.9
2017-Aug-30 12:00N 51°05' E 001°39'611.2
2017-Aug-30 11:30N 51°00' E 001°33'611.1
2017-Aug-30 11:00N 50°56' E 001°28'611.2
2017-Aug-30 10:30N 50°50' E 001°26'5011.5
2017-Aug-30 06:10N 50°22' E 000°21'412.7
2017-Aug-30 05:53N 50°21' E 000°16'512.8
2017-Aug-30 05:30N 50°19' E 000°09'713.1
2017-Aug-30 05:00N 50°18' W 000°01'1213.6
2017-Aug-30 04:07N 50°15' W 000°19'1614.2
2017-Aug-30 02:59N 50°10' W 000°44'714.9
2017-Aug-30 02:29N 50°09' W 000°55'715.2
2017-Aug-30 02:00N 50°07' W 001°06'815.4
2017-Aug-30 01:31N 50°04' W 001°17'815.7
2017-Aug-30 01:00N 50°02' W 001°29'815.8
2017-Aug-30 00:30N 50°00' W 001°41'815.5
2017-Aug-30 00:00N 49°59' W 001°53'815.3
2017-Aug-29 23:30N 49°57' W 002°04'2914.1
2017-Aug-29 21:25N 49°49' W 002°49'1113.4
2017-Aug-29 20:34N 49°47' W 003°06'113.3
2017-Aug-29 20:30N 49°47' W 003°07'713.3
2017-Aug-29 20:00N 49°46' W 003°17'713.2
2017-Aug-29 19:30N 49°45' W 003°27'713.3
2017-Aug-29 19:00N 49°45' W 003°38'713.3
2017-Aug-29 18:30N 49°44' W 003°48'713.2
2017-Aug-29 18:00N 49°44' W 003°58'713.2
2017-Aug-29 17:30N 49°43' W 004°08'  

Dump ship's entire track history